West Carrollton, Ohio
Current Conditions -  °F | °C
As of 10:53 AM on Thursday 23 Oct 2014 (Local Time) from KMGY Reporting Station
Clear Clear  
Wind Chill: 51°   Ceiling: Unl
Heat Index: 51°   Visibility: 10mi
Dew Point: 42°   Wind: 0mph
Humidity: 71%   Direction: NA
Pressure: 30.25"   Gusts: NA
Location:  39.664°N, 84.2415°W
Report Text: KMGY 231453Z AUTO 00000KT 10SM CLR 11/06 A3025 RMK AO2 SLP247 T01060056 53004
Loading
Personal Weather Stations






























Interactive Weather Map
Tropical Storm Tracking
New forecast layout! Learn more

10-Day Weather Forecast

Advertisements
Track Severe Weather on mobile